sensor_id;sensor_type;location;lat;lon;timestamp;temperature;humidity
9939;DHT22;5008;50.656;7.188;2023-04-03T04:01:25;5.10;99.90
9939;DHT22;5008;50.656;7.188;2023-04-03T04:03:51;5.10;99.90
9939;DHT22;5008;50.656;7.188;2023-04-03T04:06:19;5.00;99.90
9939;DHT22;5008;50.656;7.188;2023-04-03T04:08:46;5.00;99.90
9939;DHT22;5008;50.656;7.188;2023-04-03T04:11:13;4.90;99.90
9939;DHT22;5008;50.656;7.188;2023-04-03T04:13:42;4.90;99.90
9939;DHT22;5008;50.656;7.188;2023-04-03T04:16:10;4.90;99.90
9939;DHT22;5008;50.656;7.188;2023-04-03T04:18:38;4.90;99.90
9939;DHT22;5008;50.656;7.188;2023-04-03T04:21:04;4.90;99.90
9939;DHT22;5008;50.656;7.188;2023-04-03T04:23:31;5.00;99.90
9939;DHT22;5008;50.656;7.188;2023-04-03T04:25:58;4.90;99.90
9939;DHT22;5008;50.656;7.188;2023-04-03T04:28:25;4.90;99.90
9939;DHT22;5008;50.656;7.188;2023-04-03T04:30:52;5.00;99.90
9939;DHT22;5008;50.656;7.188;2023-04-03T04:33:18;5.30;99.90
9939;DHT22;5008;50.656;7.188;2023-04-03T04:35:48;5.60;99.90
9939;DHT22;5008;50.656;7.188;2023-04-03T04:38:15;5.90;99.90
9939;DHT22;5008;50.656;7.188;2023-04-03T04:40:42;5.90;99.90
9939;DHT22;5008;50.656;7.188;2023-04-03T04:43:09;5.80;99.90
9939;DHT22;5008;50.656;7.188;2023-04-03T04:45:36;6.00;99.90
9939;DHT22;5008;50.656;7.188;2023-04-03T04:48:03;6.00;99.90
9939;DHT22;5008;50.656;7.188;2023-04-03T04:50:30;6.10;99.90
9939;DHT22;5008;50.656;7.188;2023-04-03T04:52:58;7.00;99.90
9939;DHT22;5008;50.656;7.188;2023-04-03T04:55:25;6.70;99.90
9939;DHT22;5008;50.656;7.188;2023-04-03T04:57:52;6.70;99.90
9939;DHT22;5008;50.656;7.188;2023-04-03T05:00:19;6.50;99.90
9939;DHT22;5008;50.656;7.188;2023-04-03T05:02:46;6.60;99.90
9939;DHT22;5008;50.656;7.188;2023-04-03T05:05:13;6.30;99.90
9939;DHT22;5008;50.656;7.188;2023-04-03T05:07:40;6.10;99.90
9939;DHT22;5008;50.656;7.188;2023-04-03T05:10:09;6.60;99.90
9939;DHT22;5008;50.656;7.188;2023-04-03T05:12:36;6.40;99.90
9939;DHT22;5008;50.656;7.188;2023-04-03T05:15:04;6.50;99.90
9939;DHT22;5008;50.656;7.188;2023-04-03T05:17:31;6.80;99.90
9939;DHT22;5008;50.656;7.188;2023-04-03T05:19:58;6.70;99.90
9939;DHT22;5008;50.656;7.188;2023-04-03T05:22:24;6.40;99.90
9939;DHT22;5008;50.656;7.188;2023-04-03T05:24:51;6.10;99.90
9939;DHT22;5008;50.656;7.188;2023-04-03T05:27:19;5.90;99.90
9939;DHT22;5008;50.656;7.188;2023-04-03T05:29:46;5.60;99.90
9939;DHT22;5008;50.656;7.188;2023-04-03T05:32:13;5.40;99.90
9939;DHT22;5008;50.656;7.188;2023-04-03T05:34:39;5.30;99.90
9939;DHT22;5008;50.656;7.188;2023-04-03T05:37:06;5.20;99.90
9939;DHT22;5008;50.656;7.188;2023-04-03T05:39:33;5.20;99.90
9939;DHT22;5008;50.656;7.188;2023-04-03T05:42:00;5.20;99.90
9939;DHT22;5008;50.656;7.188;2023-04-03T05:44:28;5.20;99.90
9939;DHT22;5008;50.656;7.188;2023-04-03T05:46:55;5.10;99.90
9939;DHT22;5008;50.656;7.188;2023-04-03T05:49:21;5.10;99.90
9939;DHT22;5008;50.656;7.188;2023-04-03T05:51:48;5.20;99.90
9939;DHT22;5008;50.656;7.188;2023-04-03T05:54:19;5.10;99.90
9939;DHT22;5008;50.656;7.188;2023-04-03T05:56:48;5.10;99.90
9939;DHT22;5008;50.656;7.188;2023-04-03T05:59:15;5.10;99.90
9939;DHT22;5008;50.656;7.188;2023-04-03T06:01:43;5.10;99.90
9939;DHT22;5008;50.656;7.188;2023-04-03T06:04:10;5.20;99.90
9939;DHT22;5008;50.656;7.188;2023-04-03T06:06:48;5.20;99.90
9939;DHT22;5008;50.656;7.188;2023-04-03T06:09:17;5.10;99.90
9939;DHT22;5008;50.656;7.188;2023-04-03T06:11:44;5.10;99.90
9939;DHT22;5008;50.656;7.188;2023-04-03T06:14:11;5.10;99.90
9939;DHT22;5008;50.656;7.188;2023-04-03T06:16:38;5.20;99.90
9939;DHT22;5008;50.656;7.188;2023-04-03T06:19:07;5.20;99.90
9939;DHT22;5008;50.656;7.188;2023-04-03T06:21:35;5.20;99.90
9939;DHT22;5008;50.656;7.188;2023-04-03T06:24:02;5.20;99.90
9939;DHT22;5008;50.656;7.188;2023-04-03T06:26:29;5.20;99.90
9939;DHT22;5008;50.656;7.188;2023-04-03T06:28:55;5.30;99.90
9939;DHT22;5008;50.656;7.188;2023-04-03T06:31:22;5.30;99.90
9939;DHT22;5008;50.656;7.188;2023-04-03T06:33:49;5.30;99.90
9939;DHT22;5008;50.656;7.188;2023-04-03T06:36:18;5.50;99.90
9939;DHT22;5008;50.656;7.188;2023-04-03T06:38:46;5.60;99.90
9939;DHT22;5008;50.656;7.188;2023-04-03T06:41:16;5.60;99.90
9939;DHT22;5008;50.656;7.188;2023-04-03T06:43:43;5.70;99.90
9939;DHT22;5008;50.656;7.188;2023-04-03T06:46:13;5.80;99.90
9939;DHT22;5008;50.656;7.188;2023-04-03T06:48:41;5.70;99.90
9939;DHT22;5008;50.656;7.188;2023-04-03T06:51:16;5.80;99.90
9939;DHT22;5008;50.656;7.188;2023-04-03T06:53:44;5.70;99.90
9939;DHT22;5008;50.656;7.188;2023-04-03T06:56:11;5.80;99.90
9939;DHT22;5008;50.656;7.188;2023-04-03T06:58:38;6.10;99.90
9939;DHT22;5008;50.656;7.188;2023-04-03T07:01:04;6.10;99.90
9939;DHT22;5008;50.656;7.188;2023-04-03T07:03:31;6.10;99.90
9939;DHT22;5008;50.656;7.188;2023-04-03T07:05:58;6.30;99.90
9939;DHT22;5008;50.656;7.188;2023-04-03T07:08:26;6.40;99.90
9939;DHT22;5008;50.656;7.188;2023-04-03T07:10:54;6.50;99.90
9939;DHT22;5008;50.656;7.188;2023-04-03T07:13:21;6.60;99.90
9939;DHT22;5008;50.656;7.188;2023-04-03T07:15:48;6.70;99.90
9939;DHT22;5008;50.656;7.188;2023-04-03T07:18:15;6.90;99.90
9939;DHT22;5008;50.656;7.188;2023-04-03T07:20:43;7.10;99.90
9939;DHT22;5008;50.656;7.188;2023-04-03T07:23:10;7.00;99.90
9939;DHT22;5008;50.656;7.188;2023-04-03T07:25:42;7.00;99.90
9939;DHT22;5008;50.656;7.188;2023-04-03T07:28:09;7.10;99.90
9939;DHT22;5008;50.656;7.188;2023-04-03T07:30:42;7.20;99.90
9939;DHT22;5008;50.656;7.188;2023-04-03T07:33:09;7.10;99.90
9939;DHT22;5008;50.656;7.188;2023-04-03T07:35:36;7.10;99.90
9939;DHT22;5008;50.656;7.188;2023-04-03T07:38:02;7.20;99.90
9939;DHT22;5008;50.656;7.188;2023-04-03T07:40:29;7.40;99.90
9939;DHT22;5008;50.656;7.188;2023-04-03T07:42:57;7.70;99.90
9939;DHT22;5008;50.656;7.188;2023-04-03T07:45:25;7.90;99.90
9939;DHT22;5008;50.656;7.188;2023-04-03T07:47:52;8.00;99.90
9939;DHT22;5008;50.656;7.188;2023-04-03T07:50:19;8.50;99.90
9939;DHT22;5008;50.656;7.188;2023-04-03T07:52:46;8.60;99.90
9939;DHT22;5008;50.656;7.188;2023-04-03T07:55:13;8.70;99.90
9939;DHT22;5008;50.656;7.188;2023-04-03T07:57:40;8.80;99.90
9939;DHT22;5008;50.656;7.188;2023-04-03T08:00:10;8.60;99.90
9939;DHT22;5008;50.656;7.188;2023-04-03T08:02:37;8.80;99.90
9939;DHT22;5008;50.656;7.188;2023-04-03T08:05:05;8.90;99.90
9939;DHT22;5008;50.656;7.188;2023-04-03T08:07:31;8.90;99.90
9939;DHT22;5008;50.656;7.188;2023-04-03T08:09:58;8.90;99.90
9939;DHT22;5008;50.656;7.188;2023-04-03T08:12:25;8.80;99.90
9939;DHT22;5008;50.656;7.188;2023-04-03T08:14:53;9.40;99.90
9939;DHT22;5008;50.656;7.188;2023-04-03T08:17:22;9.20;99.90
9939;DHT22;5008;50.656;7.188;2023-04-03T08:19:48;9.20;99.90
9939;DHT22;5008;50.656;7.188;2023-04-03T08:22:15;9.30;99.90
9939;DHT22;5008;50.656;7.188;2023-04-03T08:24:42;9.70;99.90
9939;DHT22;5008;50.656;7.188;2023-04-03T08:27:09;9.20;99.90
9939;DHT22;5008;50.656;7.188;2023-04-03T08:29:36;8.80;99.90
9939;DHT22;5008;50.656;7.188;2023-04-03T08:32:03;8.70;99.90
9939;DHT22;5008;50.656;7.188;2023-04-03T08:34:32;8.70;99.90
9939;DHT22;5008;50.656;7.188;2023-04-03T08:37:00;8.90;99.90
9939;DHT22;5008;50.656;7.188;2023-04-03T08:39:27;8.90;99.90
9939;DHT22;5008;50.656;7.188;2023-04-03T08:41:55;9.30;99.90
9939;DHT22;5008;50.656;7.188;2023-04-03T08:44:25;9.40;99.90
9939;DHT22;5008;50.656;7.188;2023-04-03T08:47:08;9.50;99.90
9939;DHT22;5008;50.656;7.188;2023-04-03T08:49:40;9.80;99.90
9939;DHT22;5008;50.656;7.188;2023-04-03T08:52:15;9.90;99.90
9939;DHT22;5008;50.656;7.188;2023-04-03T08:54:50;10.00;99.90
9939;DHT22;5008;50.656;7.188;2023-04-03T08:57:28;9.80;99.90
9939;DHT22;5008;50.656;7.188;2023-04-03T08:59:58;9.90;99.90
9939;DHT22;5008;50.656;7.188;2023-04-03T09:02:31;9.80;99.90
9939;DHT22;5008;50.656;7.188;2023-04-03T09:05:01;9.80;99.90
9939;DHT22;5008;50.656;7.188;2023-04-03T09:07:35;9.50;99.90
9939;DHT22;5008;50.656;7.188;2023-04-03T09:10:03;9.70;99.90
9939;DHT22;5008;50.656;7.188;2023-04-03T09:12:34;9.50;99.90
9939;DHT22;5008;50.656;7.188;2023-04-03T09:15:16;9.80;99.90
9939;DHT22;5008;50.656;7.188;2023-04-03T09:17:53;10.30;99.90
9939;DHT22;5008;50.656;7.188;2023-04-03T09:20:26;10.40;99.90
9939;DHT22;5008;50.656;7.188;2023-04-03T09:22:57;10.50;99.90
9939;DHT22;5008;50.656;7.188;2023-04-03T09:25:27;10.30;99.90
9939;DHT22;5008;50.656;7.188;2023-04-03T09:27:56;10.20;99.90
9939;DHT22;5008;50.656;7.188;2023-04-03T09:30:24;10.60;99.90
9939;DHT22;5008;50.656;7.188;2023-04-03T09:32:53;10.60;99.90
9939;DHT22;5008;50.656;7.188;2023-04-03T09:35:24;10.60;99.90
9939;DHT22;5008;50.656;7.188;2023-04-03T09:37:53;10.60;99.90
9939;DHT22;5008;50.656;7.188;2023-04-03T09:40:36;10.60;99.90
9939;DHT22;5008;50.656;7.188;2023-04-03T09:43:27;10.70;99.90
9939;DHT22;5008;50.656;7.188;2023-04-03T09:45:55;11.10;99.90
9939;DHT22;5008;50.656;7.188;2023-04-03T09:48:24;11.10;99.90
9939;DHT22;5008;50.656;7.188;2023-04-03T09:50:58;11.10;99.90
9939;DHT22;5008;50.656;7.188;2023-04-03T09:53:29;11.10;99.90
9939;DHT22;5008;50.656;7.188;2023-04-03T09:55:57;11.00;99.90
9939;DHT22;5008;50.656;7.188;2023-04-03T09:58:26;10.70;99.90
9939;DHT22;5008;50.656;7.188;2023-04-03T10:00:55;10.70;99.90
9939;DHT22;5008;50.656;7.188;2023-04-03T10:03:27;10.70;99.90
9939;DHT22;5008;50.656;7.188;2023-04-03T10:05:55;10.80;99.90
9939;DHT22;5008;50.656;7.188;2023-04-03T10:08:27;10.70;99.90
9939;DHT22;5008;50.656;7.188;2023-04-03T10:11:09;10.70;99.90
9939;DHT22;5008;50.656;7.188;2023-04-03T10:13:49;10.40;99.90
9939;DHT22;5008;50.656;7.188;2023-04-03T10:16:18;10.40;99.90
9939;DHT22;5008;50.656;7.188;2023-04-03T10:18:52;10.70;99.90
9939;DHT22;5008;50.656;7.188;2023-04-03T10:21:32;11.00;99.90
9939;DHT22;5008;50.656;7.188;2023-04-03T10:24:08;10.90;99.90
9939;DHT22;5008;50.656;7.188;2023-04-03T10:26:41;11.00;99.90
9939;DHT22;5008;50.656;7.188;2023-04-03T10:29:18;11.10;99.90
9939;DHT22;5008;50.656;7.188;2023-04-03T10:31:53;11.20;99.90
9939;DHT22;5008;50.656;7.188;2023-04-03T10:34:28;11.50;99.90
9939;DHT22;5008;50.656;7.188;2023-04-03T10:37:04;11.40;99.90
9939;DHT22;5008;50.656;7.188;2023-04-03T10:39:37;11.50;99.90
9939;DHT22;5008;50.656;7.188;2023-04-03T10:42:11;11.40;99.90
9939;DHT22;5008;50.656;7.188;2023-04-03T10:44:47;11.50;99.90
9939;DHT22;5008;50.656;7.188;2023-04-03T10:47:20;11.60;99.90
9939;DHT22;5008;50.656;7.188;2023-04-03T10:49:54;11.50;99.90
9939;DHT22;5008;50.656;7.188;2023-04-03T10:52:28;11.50;99.90
9939;DHT22;5008;50.656;7.188;2023-04-03T10:55:01;11.50;99.90
9939;DHT22;5008;50.656;7.188;2023-04-03T10:57:30;11.50;99.90
9939;DHT22;5008;50.656;7.188;2023-04-03T10:59:59;11.60;99.90
9939;DHT22;5008;50.656;7.188;2023-04-03T11:02:29;11.50;99.90
9939;DHT22;5008;50.656;7.188;2023-04-03T11:05:01;11.90;99.90
9939;DHT22;5008;50.656;7.188;2023-04-03T11:07:32;12.00;99.90
9939;DHT22;5008;50.656;7.188;2023-04-03T11:10:03;12.00;99.90
9939;DHT22;5008;50.656;7.188;2023-04-03T11:12:38;12.10;99.90
9939;DHT22;5008;50.656;7.188;2023-04-03T11:15:12;12.10;99.90
9939;DHT22;5008;50.656;7.188;2023-04-03T11:17:43;12.10;99.90
9939;DHT22;5008;50.656;7.188;2023-04-03T11:20:17;12.20;99.90
9939;DHT22;5008;50.656;7.188;2023-04-03T11:22:50;12.20;99.90
9939;DHT22;5008;50.656;7.188;2023-04-03T11:25:20;12.30;99.90
9939;DHT22;5008;50.656;7.188;2023-04-03T11:27:52;12.10;99.90
9939;DHT22;5008;50.656;7.188;2023-04-03T11:30:24;12.20;99.90
9939;DHT22;5008;50.656;7.188;2023-04-03T11:33:20;12.20;99.90
9939;DHT22;5008;50.656;7.188;2023-04-03T11:35:51;12.20;99.90
9939;DHT22;5008;50.656;7.188;2023-04-03T11:38:23;12.30;99.90
9939;DHT22;5008;50.656;7.188;2023-04-03T11:40:53;12.20;99.90
9939;DHT22;5008;50.656;7.188;2023-04-03T11:43:24;12.40;99.90
9939;DHT22;5008;50.656;7.188;2023-04-03T11:45:57;12.50;99.90
9939;DHT22;5008;50.656;7.188;2023-04-03T11:48:45;12.60;99.90
9939;DHT22;5008;50.656;7.188;2023-04-03T11:51:43;12.60;99.90
9939;DHT22;5008;50.656;7.188;2023-04-03T11:54:47;12.60;99.90
9939;DHT22;5008;50.656;7.188;2023-04-03T11:58:02;12.70;99.90
9939;DHT22;5008;50.656;7.188;2023-04-03T12:00:54;12.70;99.90
9939;DHT22;5008;50.656;7.188;2023-04-03T12:07:02;13.00;99.90
9939;DHT22;5008;50.656;7.188;2023-04-03T12:10:18;13.40;99.90
9939;DHT22;5008;50.656;7.188;2023-04-03T12:12:56;13.40;99.90
9939;DHT22;5008;50.656;7.188;2023-04-03T12:15:47;13.80;99.90
9939;DHT22;5008;50.656;7.188;2023-04-03T12:18:40;14.10;99.90
9939;DHT22;5008;50.656;7.188;2023-04-03T12:21:07;13.80;99.90
9939;DHT22;5008;50.656;7.188;2023-04-03T12:23:34;14.20;99.90
9939;DHT22;5008;50.656;7.188;2023-04-03T12:26:19;14.80;99.30
9939;DHT22;5008;50.656;7.188;2023-04-03T12:28:48;15.30;95.90
9939;DHT22;5008;50.656;7.188;2023-04-03T12:31:16;15.40;99.90
9939;DHT22;5008;50.656;7.188;2023-04-03T12:33:59;15.70;97.30
9939;DHT22;5008;50.656;7.188;2023-04-03T12:36:36;15.90;96.60
9939;DHT22;5008;50.656;7.188;2023-04-03T12:42:18;15.20;96.90
9939;DHT22;5008;50.656;7.188;2023-04-03T12:44:59;14.70;98.40
9939;DHT22;5008;50.656;7.188;2023-04-03T12:47:31;14.40;99.90
9939;DHT22;5008;50.656;7.188;2023-04-03T12:50:03;14.50;99.00
9939;DHT22;5008;50.656;7.188;2023-04-03T12:52:35;14.90;98.20
9939;DHT22;5008;50.656;7.188;2023-04-03T12:55:08;15.20;95.70
9939;DHT22;5008;50.656;7.188;2023-04-03T12:57:42;15.40;99.90
9939;DHT22;5008;50.656;7.188;2023-04-03T13:00:30;16.00;98.30
9939;DHT22;5008;50.656;7.188;2023-04-03T13:02:58;16.20;96.80
9939;DHT22;5008;50.656;7.188;2023-04-03T13:05:25;16.60;96.80
9939;DHT22;5008;50.656;7.188;2023-04-03T13:07:54;16.80;94.00
9939;DHT22;5008;50.656;7.188;2023-04-03T13:10:22;17.20;95.40
9939;DHT22;5008;50.656;7.188;2023-04-03T13:12:52;17.90;93.60
9939;DHT22;5008;50.656;7.188;2023-04-03T13:15:21;17.70;94.70
9939;DHT22;5008;50.656;7.188;2023-04-03T13:17:50;17.80;92.10
9939;DHT22;5008;50.656;7.188;2023-04-03T13:20:21;17.90;93.40
9939;DHT22;5008;50.656;7.188;2023-04-03T13:22:53;18.40;90.20
9939;DHT22;5008;50.656;7.188;2023-04-03T13:25:23;18.20;91.70
9939;DHT22;5008;50.656;7.188;2023-04-03T13:27:52;18.10;89.80
9939;DHT22;5008;50.656;7.188;2023-04-03T13:30:23;18.20;87.70
9939;DHT22;5008;50.656;7.188;2023-04-03T13:32:51;18.30;86.60
9939;DHT22;5008;50.656;7.188;2023-04-03T13:35:32;18.10;91.70
9939;DHT22;5008;50.656;7.188;2023-04-03T13:38:02;17.90;91.20
9939;DHT22;5008;50.656;7.188;2023-04-03T13:40:29;17.80;87.30
9939;DHT22;5008;50.656;7.188;2023-04-03T13:43:03;18.00;91.30
9939;DHT22;5008;50.656;7.188;2023-04-03T13:45:30;18.30;89.50
9939;DHT22;5008;50.656;7.188;2023-04-03T13:48:14;18.60;90.30
9939;DHT22;5008;50.656;7.188;2023-04-03T13:50:58;18.70;90.90
9939;DHT22;5008;50.656;7.188;2023-04-03T13:53:26;18.90;89.70
9939;DHT22;5008;50.656;7.188;2023-04-03T13:55:58;19.30;89.60
9939;DHT22;5008;50.656;7.188;2023-04-03T13:58:27;19.00;85.90
9939;DHT22;5008;50.656;7.188;2023-04-03T14:00:58;19.40;88.80
9939;DHT22;5008;50.656;7.188;2023-04-03T14:03:30;19.70;89.90
9939;DHT22;5008;50.656;7.188;2023-04-03T14:05:58;20.40;85.80
9939;DHT22;5008;50.656;7.188;2023-04-03T14:08:26;20.40;81.40
9939;DHT22;5008;50.656;7.188;2023-04-03T14:10:53;19.70;87.10
9939;DHT22;5008;50.656;7.188;2023-04-03T14:13:20;19.60;86.70
9939;DHT22;5008;50.656;7.188;2023-04-03T14:15:49;19.90;79.10
9939;DHT22;5008;50.656;7.188;2023-04-03T14:18:19;20.00;87.10
9939;DHT22;5008;50.656;7.188;2023-04-03T14:20:47;20.70;75.50
9939;DHT22;5008;50.656;7.188;2023-04-03T14:23:14;21.30;73.30
9939;DHT22;5008;50.656;7.188;2023-04-03T14:25:41;22.40;75.30
9939;DHT22;5008;50.656;7.188;2023-04-03T14:28:15;23.30;74.10
9939;DHT22;5008;50.656;7.188;2023-04-03T14:30:42;23.40;72.00
9939;DHT22;5008;50.656;7.188;2023-04-03T14:33:14;23.30;67.50
9939;DHT22;5008;50.656;7.188;2023-04-03T14:35:41;24.00;63.50
9939;DHT22;5008;50.656;7.188;2023-04-03T14:38:22;24.20;65.30
9939;DHT22;5008;50.656;7.188;2023-04-03T14:40:49;24.10;67.70
9939;DHT22;5008;50.656;7.188;2023-04-03T14:43:16;23.80;59.00
9939;DHT22;5008;50.656;7.188;2023-04-03T14:45:44;23.80;68.10
9939;DHT22;5008;50.656;7.188;2023-04-03T14:48:17;24.10;64.20
9939;DHT22;5008;50.656;7.188;2023-04-03T14:50:45;24.20;64.10
9939;DHT22;5008;50.656;7.188;2023-04-03T14:53:12;24.00;56.70
9939;DHT22;5008;50.656;7.188;2023-04-03T14:55:42;24.30;56.60
9939;DHT22;5008;50.656;7.188;2023-04-03T14:58:12;24.20;62.80
9939;DHT22;5008;50.656;7.188;2023-04-03T15:00:40;24.20;58.10
9939;DHT22;5008;50.656;7.188;2023-04-03T15:03:13;24.20;58.30
9939;DHT22;5008;50.656;7.188;2023-04-03T15:05:41;24.30;58.00
9939;DHT22;5008;50.656;7.188;2023-04-03T15:08:16;24.60;57.50
9939;DHT22;5008;50.656;7.188;2023-04-03T15:10:44;24.70;56.30
9939;DHT22;5008;50.656;7.188;2023-04-03T15:13:12;24.60;55.10
9939;DHT22;5008;50.656;7.188;2023-04-03T15:15:39;23.60;59.30
9939;DHT22;5008;50.656;7.188;2023-04-03T15:18:06;23.00;58.90
9939;DHT22;5008;50.656;7.188;2023-04-03T15:20:34;22.60;60.90
9939;DHT22;5008;50.656;7.188;2023-04-03T15:23:01;21.70;60.70
9939;DHT22;5008;50.656;7.188;2023-04-03T15:25:28;21.10;59.10
9939;DHT22;5008;50.656;7.188;2023-04-03T15:27:56;20.30;63.00
9939;DHT22;5008;50.656;7.188;2023-04-03T15:30:23;19.40;66.30
9939;DHT22;5008;50.656;7.188;2023-04-03T15:32:51;19.80;66.70
9939;DHT22;5008;50.656;7.188;2023-04-03T15:35:18;19.60;64.80
9939;DHT22;5008;50.656;7.188;2023-04-03T15:37:46;18.90;61.10
9939;DHT22;5008;50.656;7.188;2023-04-03T15:40:14;18.00;69.10
9939;DHT22;5008;50.656;7.188;2023-04-03T15:42:41;17.40;71.50
9939;DHT22;5008;50.656;7.188;2023-04-03T15:45:09;17.10;68.50
9939;DHT22;5008;50.656;7.188;2023-04-03T15:47:36;18.50;68.50
9939;DHT22;5008;50.656;7.188;2023-04-03T15:50:04;20.30;67.60
9939;DHT22;5008;50.656;7.188;2023-04-03T15:52:31;21.90;62.40
9939;DHT22;5008;50.656;7.188;2023-04-03T15:54:59;22.70;58.40
9939;DHT22;5008;50.656;7.188;2023-04-03T15:57:26;23.30;55.80
9939;DHT22;5008;50.656;7.188;2023-04-03T15:59:53;22.50;54.40
9939;DHT22;5008;50.656;7.188;2023-04-03T16:02:20;20.60;59.30
9939;DHT22;5008;50.656;7.188;2023-04-03T16:04:49;18.90;63.00
9939;DHT22;5008;50.656;7.188;2023-04-03T16:07:16;17.70;69.00
9939;DHT22;5008;50.656;7.188;2023-04-03T16:09:43;16.70;68.50
9939;DHT22;5008;50.656;7.188;2023-04-03T16:12:11;15.90;62.20
9939;DHT22;5008;50.656;7.188;2023-04-03T16:14:38;15.40;65.90
9939;DHT22;5008;50.656;7.188;2023-04-03T16:17:04;15.30;65.20
9939;DHT22;5008;50.656;7.188;2023-04-03T16:19:33;15.00;71.80
9939;DHT22;5008;50.656;7.188;2023-04-03T16:21:59;14.80;70.30
9939;DHT22;5008;50.656;7.188;2023-04-03T16:24:26;14.60;71.40
9939;DHT22;5008;50.656;7.188;2023-04-03T16:26:53;14.40;72.50
9939;DHT22;5008;50.656;7.188;2023-04-03T16:29:21;14.30;79.30
9939;DHT22;5008;50.656;7.188;2023-04-03T16:31:48;14.10;73.30
9939;DHT22;5008;50.656;7.188;2023-04-03T16:34:15;13.90;71.10
9939;DHT22;5008;50.656;7.188;2023-04-03T16:36:42;13.90;77.60
9939;DHT22;5008;50.656;7.188;2023-04-03T16:39:09;13.80;78.40
9939;DHT22;5008;50.656;7.188;2023-04-03T16:41:36;13.70;80.30
9939;DHT22;5008;50.656;7.188;2023-04-03T16:44:03;13.70;83.80
9939;DHT22;5008;50.656;7.188;2023-04-03T16:46:32;13.60;85.70
9939;DHT22;5008;50.656;7.188;2023-04-03T16:48:58;13.50;83.90
9939;DHT22;5008;50.656;7.188;2023-04-03T16:51:25;13.50;85.50
9939;DHT22;5008;50.656;7.188;2023-04-03T16:53:52;13.40;80.70
9939;DHT22;5008;50.656;7.188;2023-04-03T16:56:19;13.30;79.10
9939;DHT22;5008;50.656;7.188;2023-04-03T16:58:46;13.30;87.80
9939;DHT22;5008;50.656;7.188;2023-04-03T17:01:18;13.20;82.20
9939;DHT22;5008;50.656;7.188;2023-04-03T17:03:46;13.10;82.30
9939;DHT22;5008;50.656;7.188;2023-04-03T17:06:16;12.90;81.70
9939;DHT22;5008;50.656;7.188;2023-04-03T17:08:44;12.90;85.60
9939;DHT22;5008;50.656;7.188;2023-04-03T17:11:12;12.80;82.40
9939;DHT22;5008;50.656;7.188;2023-04-03T17:13:39;12.70;85.40
9939;DHT22;5008;50.656;7.188;2023-04-03T17:16:08;12.80;89.60
9939;DHT22;5008;50.656;7.188;2023-04-03T17:18:36;12.70;87.50
9939;DHT22;5008;50.656;7.188;2023-04-03T17:21:05;12.80;91.00
9939;DHT22;5008;50.656;7.188;2023-04-03T17:23:33;12.70;88.00
9939;DHT22;5008;50.656;7.188;2023-04-03T17:26:00;12.70;90.50
9939;DHT22;5008;50.656;7.188;2023-04-03T17:28:27;12.70;90.60
9939;DHT22;5008;50.656;7.188;2023-04-03T17:30:54;12.60;89.30
9939;DHT22;5008;50.656;7.188;2023-04-03T17:33:21;12.40;85.40
9939;DHT22;5008;50.656;7.188;2023-04-03T17:35:48;12.30;88.50
9939;DHT22;5008;50.656;7.188;2023-04-03T17:38:16;12.20;89.50
9939;DHT22;5008;50.656;7.188;2023-04-03T17:40:43;12.10;88.20
9939;DHT22;5008;50.656;7.188;2023-04-03T17:43:10;12.00;88.90
9939;DHT22;5008;50.656;7.188;2023-04-03T17:45:37;11.80;84.40
9939;DHT22;5008;50.656;7.188;2023-04-03T17:48:05;11.80;88.70
9939;DHT22;5008;50.656;7.188;2023-04-03T17:50:32;11.70;88.40
9939;DHT22;5008;50.656;7.188;2023-04-03T17:52:58;11.70;89.10
9939;DHT22;5008;50.656;7.188;2023-04-03T17:55:26;11.50;82.00
9939;DHT22;5008;50.656;7.188;2023-04-03T17:57:53;11.50;85.00
9939;DHT22;5008;50.656;7.188;2023-04-03T18:00:20;11.70;92.10
9939;DHT22;5008;50.656;7.188;2023-04-03T18:02:51;11.60;80.80
9939;DHT22;5008;50.656;7.188;2023-04-03T18:05:18;11.60;91.60
9939;DHT22;5008;50.656;7.188;2023-04-03T18:07:45;11.60;91.10
9939;DHT22;5008;50.656;7.188;2023-04-03T18:10:12;11.40;91.20
9939;DHT22;5008;50.656;7.188;2023-04-03T18:12:40;11.40;92.00
9939;DHT22;5008;50.656;7.188;2023-04-03T18:15:08;11.40;91.90
9939;DHT22;5008;50.656;7.188;2023-04-03T18:17:36;11.10;86.50
9939;DHT22;5008;50.656;7.188;2023-04-03T18:20:03;11.00;85.60
9939;DHT22;5008;50.656;7.188;2023-04-03T18:22:30;10.90;91.30
9939;DHT22;5008;50.656;7.188;2023-04-03T18:24:58;10.80;83.70
9939;DHT22;5008;50.656;7.188;2023-04-03T18:27:26;10.70;91.10
9939;DHT22;5008;50.656;7.188;2023-04-03T18:30:01;10.90;92.60
9939;DHT22;5008;50.656;7.188;2023-04-03T18:32:28;10.80;92.30
9939;DHT22;5008;50.656;7.188;2023-04-03T18:34:55;10.70;84.30
9939;DHT22;5008;50.656;7.188;2023-04-03T18:37:21;10.50;88.60
9939;DHT22;5008;50.656;7.188;2023-04-03T18:39:49;10.40;89.20
9939;DHT22;5008;50.656;7.188;2023-04-03T18:42:19;10.20;91.10
9939;DHT22;5008;50.656;7.188;2023-04-03T18:44:48;10.30;92.60
9939;DHT22;5008;50.656;7.188;2023-04-03T18:47:17;10.30;91.90
9939;DHT22;5008;50.656;7.188;2023-04-03T18:49:45;10.10;90.00
9939;DHT22;5008;50.656;7.188;2023-04-03T18:52:11;10.00;90.60
9939;DHT22;5008;50.656;7.188;2023-04-03T18:54:38;9.90;92.10
9939;DHT22;5008;50.656;7.188;2023-04-03T18:57:07;9.80;91.00
9939;DHT22;5008;50.656;7.188;2023-04-03T18:59:34;9.70;91.20
9939;DHT22;5008;50.656;7.188;2023-04-03T19:02:02;9.60;90.10
9939;DHT22;5008;50.656;7.188;2023-04-03T19:04:34;9.50;90.60
9939;DHT22;5008;50.656;7.188;2023-04-03T19:07:01;9.40;91.10
9939;DHT22;5008;50.656;7.188;2023-04-03T19:09:30;9.50;92.00
9939;DHT22;5008;50.656;7.188;2023-04-03T19:11:57;9.60;93.50
9939;DHT22;5008;50.656;7.188;2023-04-03T19:14:26;9.70;94.30
9939;DHT22;5008;50.656;7.188;2023-04-03T19:16:52;9.90;94.30
9939;DHT22;5008;50.656;7.188;2023-04-03T19:19:19;10.00;95.00
9939;DHT22;5008;50.656;7.188;2023-04-03T19:21:47;9.90;93.40
9939;DHT22;5008;50.656;7.188;2023-04-03T19:24:14;9.90;93.60
9939;DHT22;5008;50.656;7.188;2023-04-03T19:26:41;9.80;93.50
9939;DHT22;5008;50.656;7.188;2023-04-03T19:29:08;9.70;94.00
9939;DHT22;5008;50.656;7.188;2023-04-03T19:31:36;9.60;93.90
9939;DHT22;5008;50.656;7.188;2023-04-03T19:34:03;9.50;91.60
9939;DHT22;5008;50.656;7.188;2023-04-03T19:36:30;9.40;93.70
9939;DHT22;5008;50.656;7.188;2023-04-03T19:38:58;9.30;94.90
9939;DHT22;5008;50.656;7.188;2023-04-03T19:41:27;9.20;92.60
9939;DHT22;5008;50.656;7.188;2023-04-03T19:43:54;9.20;95.70
9939;DHT22;5008;50.656;7.188;2023-04-03T19:46:22;9.10;93.10
9939;DHT22;5008;50.656;7.188;2023-04-03T19:48:49;8.90;90.20
9939;DHT22;5008;50.656;7.188;2023-04-03T19:51:16;8.80;92.10
9939;DHT22;5008;50.656;7.188;2023-04-03T19:53:43;8.80;93.80
9939;DHT22;5008;50.656;7.188;2023-04-03T19:56:13;8.80;93.90
9939;DHT22;5008;50.656;7.188;2023-04-03T19:58:41;8.90;95.10
9939;DHT22;5008;50.656;7.188;2023-04-03T20:01:07;8.90;91.50
9939;DHT22;5008;50.656;7.188;2023-04-03T20:03:34;8.80;94.20
9939;DHT22;5008;50.656;7.188;2023-04-03T20:06:01;8.60;90.30
9939;DHT22;5008;50.656;7.188;2023-04-03T20:08:28;8.40;93.90
9939;DHT22;5008;50.656;7.188;2023-04-03T20:10:56;8.50;90.10
9939;DHT22;5008;50.656;7.188;2023-04-03T20:13:24;8.20;89.50
9939;DHT22;5008;50.656;7.188;2023-04-03T20:15:51;8.00;90.20
9939;DHT22;5008;50.656;7.188;2023-04-03T20:18:19;7.80;90.00
9939;DHT22;5008;50.656;7.188;2023-04-03T20:20:52;7.60;90.10
9939;DHT22;5008;50.656;7.188;2023-04-03T20:23:19;7.30;90.30
9939;DHT22;5008;50.656;7.188;2023-04-03T20:25:47;7.20;91.30
9939;DHT22;5008;50.656;7.188;2023-04-03T20:28:14;7.10;91.50
9939;DHT22;5008;50.656;7.188;2023-04-03T20:30:45;7.10;91.60
9939;DHT22;5008;50.656;7.188;2023-04-03T20:33:14;6.90;92.10